createdAt,value
2022-11-05T00:00:20.683Z,50.76
2022-11-05T00:03:06.482Z,50.26
2022-11-05T00:05:52.227Z,50.60
2022-11-05T00:08:37.722Z,50.44
2022-11-05T00:11:04.842Z,50.31
2022-11-05T00:13:50.235Z,50.75
2022-11-05T00:16:36.101Z,50.88
2022-11-05T00:19:10.251Z,50.90
2022-11-05T00:21:57.624Z,51.04
2022-11-05T00:24:43.417Z,50.80
2022-11-05T00:27:10.869Z,51.03
2022-11-05T00:29:37.842Z,50.49
2022-11-05T00:32:05.172Z,50.66
2022-11-05T00:34:32.290Z,50.32
2022-11-05T00:36:59.280Z,50.48
2022-11-05T00:39:26.245Z,50.73
2022-11-05T00:42:11.839Z,50.54
2022-11-05T00:44:57.312Z,50.28
2022-11-05T00:47:42.643Z,50.34
2022-11-05T00:50:11.040Z,50.04
2022-11-05T00:52:57.445Z,50.13
2022-11-05T00:55:35.823Z,50.43
2022-11-05T00:58:04.083Z,49.90
2022-11-05T01:00:31.755Z,49.65
2022-11-05T01:03:07.202Z,49.39
2022-11-05T01:05:38.082Z,49.48
2022-11-05T01:08:05.223Z,49.54
2022-11-05T01:10:32.180Z,49.94
2022-11-05T01:12:59.498Z,49.58
2022-11-05T01:15:26.691Z,49.26
2022-11-05T01:17:53.803Z,48.92
2022-11-05T01:20:20.766Z,49.00
2022-11-05T01:22:48.051Z,48.82
2022-11-05T01:25:14.983Z,49.13
2022-11-05T01:27:41.943Z,48.70
2022-11-05T01:30:09.765Z,48.52
2022-11-05T01:32:37.522Z,48.27
2022-11-05T01:35:06.414Z,48.53
2022-11-05T01:37:34.943Z,48.39
2022-11-05T01:40:02.095Z,48.05
2022-11-05T01:42:32.445Z,48.33
2022-11-05T01:45:10.143Z,49.32
2022-11-05T01:47:46.103Z,50.94
2022-11-05T01:50:37.514Z,50.65
2022-11-05T01:53:17.945Z,52.83
2022-11-05T01:55:55.930Z,53.09
2022-11-05T01:58:26.622Z,52.84
2022-11-05T02:00:54.825Z,52.72
2022-11-05T02:03:21.802Z,52.68
2022-11-05T02:05:51.065Z,52.74
2022-11-05T02:08:39.143Z,53.51
2022-11-05T02:11:06.189Z,52.96
2022-11-05T02:13:33.283Z,53.47
2022-11-05T02:16:15.106Z,54.04
2022-11-05T02:18:59.663Z,53.60
2022-11-05T02:21:32.485Z,54.88
2022-11-05T02:24:16.202Z,55.74
2022-11-05T02:27:05.323Z,55.98
2022-11-05T02:29:47.567Z,57.50
2022-11-05T02:32:32.643Z,58.15
2022-11-05T02:35:40.822Z,57.54
2022-11-05T02:38:13.423Z,57.49
2022-11-05T02:40:54.765Z,57.28
2022-11-05T02:43:43.303Z,57.35
2022-11-05T02:46:31.883Z,57.70
2022-11-05T02:49:13.803Z,57.93
2022-11-05T02:52:01.053Z,57.88
2022-11-05T02:54:44.624Z,57.38
2022-11-05T02:57:11.703Z,57.18
2022-11-05T02:59:38.732Z,57.31
2022-11-05T03:02:06.648Z,57.95
2022-11-05T03:04:33.932Z,57.81
2022-11-05T03:07:01.022Z,57.77
2022-11-05T03:09:49.563Z,58.62
2022-11-05T03:12:16.602Z,57.84
2022-11-05T03:14:58.727Z,57.62
2022-11-05T03:17:28.491Z,57.40
2022-11-05T03:20:08.823Z,56.80
2022-11-05T03:22:43.103Z,57.29
2022-11-05T03:25:15.243Z,57.50
2022-11-05T03:27:47.203Z,56.87
2022-11-05T03:30:16.402Z,56.77
2022-11-05T03:32:48.002Z,56.79
2022-11-05T03:35:21.101Z,56.88
2022-11-05T03:37:51.305Z,56.78
2022-11-05T03:40:21.602Z,56.82
2022-11-05T03:42:52.391Z,56.72
2022-11-05T03:45:25.683Z,56.80
2022-11-05T03:48:08.358Z,57.14
2022-11-05T03:50:42.787Z,57.07
2022-11-05T03:53:17.282Z,58.35
2022-11-05T03:56:05.724Z,57.68
2022-11-05T03:58:33.406Z,57.75
2022-11-05T04:01:03.030Z,57.87
2022-11-05T04:03:36.525Z,58.73
2022-11-05T04:06:24.147Z,58.89
2022-11-05T04:09:10.343Z,57.93
2022-11-05T04:11:55.742Z,57.97
2022-11-05T04:14:22.809Z,58.01
2022-11-05T04:17:09.754Z,57.60
2022-11-05T04:19:57.350Z,58.09
2022-11-05T04:22:45.502Z,57.89
2022-11-05T04:25:14.069Z,57.52
2022-11-05T04:27:41.223Z,57.65
2022-11-05T04:30:18.693Z,57.31
2022-11-05T04:33:04.383Z,56.80
2022-11-05T04:35:36.025Z,56.38
2022-11-05T04:38:06.105Z,56.04
2022-11-05T04:40:33.583Z,56.51
2022-11-05T04:43:01.322Z,56.85
2022-11-05T04:45:33.204Z,56.99
2022-11-05T04:48:01.290Z,58.31
2022-11-05T04:50:29.035Z,58.27
2022-11-05T04:52:56.208Z,57.77
2022-11-05T04:55:23.464Z,57.85
2022-11-05T04:57:52.102Z,57.72
2022-11-05T05:00:20.603Z,57.92
2022-11-05T05:02:48.323Z,58.15
2022-11-05T05:05:15.563Z,58.09
2022-11-05T05:07:43.042Z,57.77
2022-11-05T05:10:11.904Z,58.84
2022-11-05T05:12:39.004Z,58.55
2022-11-05T05:15:06.901Z,59.33
2022-11-05T05:17:34.324Z,58.45
2022-11-05T05:20:19.898Z,58.87
2022-11-05T05:22:54.742Z,58.85
2022-11-05T05:25:22.702Z,58.16
2022-11-05T05:27:50.021Z,58.23
2022-11-05T05:30:17.703Z,57.90
2022-11-05T05:32:44.983Z,58.79
2022-11-05T05:35:12.340Z,59.14
2022-11-05T05:37:39.653Z,58.96
2022-11-05T05:40:07.469Z,59.22
2022-11-05T05:42:40.198Z,58.38
2022-11-05T05:45:10.419Z,58.13
2022-11-05T05:47:37.595Z,58.62
2022-11-05T05:50:05.272Z,59.25
2022-11-05T05:52:32.463Z,58.31
2022-11-05T05:54:59.742Z,58.28
2022-11-05T05:57:26.939Z,58.25
2022-11-05T05:59:54.179Z,57.36
2022-11-05T06:02:21.459Z,56.90
2022-11-05T06:04:48.736Z,57.18
2022-11-05T06:07:16.027Z,56.89
2022-11-05T06:09:43.259Z,56.64
2022-11-05T06:12:10.458Z,56.51
2022-11-05T06:14:37.741Z,56.45
2022-11-05T06:17:06.905Z,56.40
2022-11-05T06:19:34.176Z,56.55
2022-11-05T06:22:01.381Z,56.20
2022-11-05T06:24:28.624Z,55.97
2022-11-05T06:26:55.672Z,56.31
2022-11-05T06:29:22.951Z,56.56
2022-11-05T06:31:50.176Z,56.33
2022-11-05T06:34:17.343Z,56.13
2022-11-05T06:36:44.506Z,56.30
2022-11-05T06:39:12.816Z,55.84
2022-11-05T06:42:03.844Z,57.81
2022-11-05T06:44:27.095Z,57.62
2022-11-05T06:46:54.254Z,59.29
2022-11-05T06:49:24.854Z,58.06
2022-11-05T06:51:52.872Z,58.16
2022-11-05T06:54:20.216Z,58.29
2022-11-05T06:56:47.418Z,58.03
2022-11-05T06:59:14.653Z,57.32
2022-11-05T07:01:42.052Z,57.81
2022-11-05T07:04:11.854Z,57.69
2022-11-05T07:06:38.937Z,57.49
2022-11-05T07:09:06.173Z,57.10
2022-11-05T07:11:50.701Z,56.86
2022-11-05T07:14:17.899Z,56.16
2022-11-05T07:16:45.535Z,56.23
2022-11-05T07:19:12.745Z,56.38
2022-11-05T07:21:39.970Z,54.91
2022-11-05T07:24:07.776Z,55.32
2022-11-05T07:26:34.953Z,54.40
2022-11-05T07:29:02.155Z,55.13
2022-11-05T07:31:29.296Z,55.21
2022-11-05T07:33:56.495Z,55.35
2022-11-05T07:36:23.699Z,54.87
2022-11-05T07:38:52.274Z,52.49
2022-11-05T07:41:21.103Z,53.00
2022-11-05T07:43:48.534Z,51.62
2022-11-05T07:46:15.616Z,51.99
2022-11-05T07:48:42.796Z,50.71
2022-11-05T07:51:10.103Z,50.08
2022-11-05T07:53:39.803Z,50.44
2022-11-05T07:56:12.494Z,50.78
2022-11-05T07:58:39.654Z,48.84
2022-11-05T08:01:07.681Z,47.44
2022-11-05T08:03:35.208Z,46.33
2022-11-05T08:06:02.654Z,46.56
2022-11-05T08:08:29.709Z,47.58
2022-11-05T08:11:07.136Z,46.28
2022-11-05T08:13:34.661Z,45.90
2022-11-05T08:16:02.335Z,45.73
2022-11-05T08:18:34.279Z,46.20
2022-11-05T08:21:03.695Z,45.11
2022-11-05T08:23:32.218Z,44.52
2022-11-05T08:25:59.536Z,44.87
2022-11-05T08:28:26.935Z,44.02
2022-11-05T08:30:57.616Z,43.04
2022-11-05T08:33:26.097Z,43.62
2022-11-05T08:35:53.293Z,43.12
2022-11-05T08:38:20.742Z,43.57
2022-11-05T08:40:55.302Z,42.81
2022-11-05T08:43:22.822Z,42.21
2022-11-05T08:45:50.215Z,43.15
2022-11-05T08:48:19.473Z,42.70
2022-11-05T08:50:48.505Z,43.73
2022-11-05T08:53:16.219Z,42.08
2022-11-05T08:55:44.341Z,42.31
2022-11-05T08:58:15.694Z,42.07
2022-11-05T09:00:45.802Z,42.31
2022-11-05T09:03:13.338Z,42.99
2022-11-05T09:05:42.214Z,41.70
2022-11-05T09:08:12.458Z,41.73
2022-11-05T09:10:40.701Z,42.35
2022-11-05T09:13:13.093Z,41.56
2022-11-05T09:15:44.214Z,41.66
2022-11-05T09:18:14.294Z,41.04
2022-11-05T09:20:41.613Z,40.50
2022-11-05T09:23:09.654Z,41.02
2022-11-05T09:25:37.301Z,41.00
2022-11-05T09:28:16.149Z,41.39
2022-11-05T09:30:47.059Z,40.61
2022-11-05T09:33:15.063Z,41.16
2022-11-05T09:35:42.822Z,40.56
2022-11-05T09:38:10.424Z,40.81
2022-11-05T09:41:00.016Z,39.69
2022-11-05T09:43:51.021Z,39.89
2022-11-05T09:46:25.213Z,39.71
2022-11-05T09:49:05.701Z,39.78
2022-11-05T09:51:34.774Z,40.38
2022-11-05T09:54:02.680Z,40.74
2022-11-05T09:56:40.613Z,39.83
2022-11-05T09:59:19.339Z,39.38
2022-11-05T10:01:47.590Z,39.45
2022-11-05T10:04:22.695Z,39.47
2022-11-05T10:06:57.162Z,39.17
2022-11-05T10:09:32.694Z,39.91
2022-11-05T10:12:17.373Z,39.82
2022-11-05T10:14:53.573Z,38.43
2022-11-05T10:17:26.933Z,38.14
2022-11-05T10:20:16.294Z,38.31
2022-11-05T10:22:48.284Z,39.14
2022-11-05T10:25:21.838Z,38.49
2022-11-05T10:27:54.895Z,38.29
2022-11-05T10:30:22.827Z,38.99
2022-11-05T10:32:55.413Z,38.52
2022-11-05T10:35:25.014Z,37.70
2022-11-05T10:37:53.935Z,38.33
2022-11-05T10:40:44.335Z,38.17
2022-11-05T10:43:29.790Z,38.51
2022-11-05T10:46:18.415Z,37.37
2022-11-05T10:49:00.455Z,38.50
2022-11-05T10:51:28.534Z,39.00
2022-11-05T10:54:05.653Z,39.07
2022-11-05T10:56:37.494Z,38.63
2022-11-05T10:59:12.009Z,39.09
2022-11-05T11:01:39.908Z,38.40
2022-11-05T11:04:22.583Z,38.25
2022-11-05T11:06:54.301Z,38.61
2022-11-05T11:09:25.134Z,39.63
2022-11-05T11:12:14.946Z,39.06
2022-11-05T11:14:42.137Z,38.22
2022-11-05T11:17:30.223Z,38.13
2022-11-05T11:20:31.506Z,38.06
2022-11-05T11:23:15.282Z,38.62
2022-11-05T11:25:48.382Z,38.98
2022-11-05T11:28:22.615Z,38.64
2022-11-05T11:31:02.484Z,39.02
2022-11-05T11:33:31.934Z,39.60
2022-11-05T11:36:00.417Z,39.00
2022-11-05T11:38:31.857Z,39.17
2022-11-05T11:41:31.215Z,38.65
2022-11-05T11:44:05.135Z,39.23
2022-11-05T11:46:34.735Z,39.36
2022-11-05T11:49:02.144Z,39.40
2022-11-05T11:51:40.888Z,38.78
2022-11-05T11:54:24.814Z,39.43
2022-11-05T11:56:54.416Z,37.74
2022-11-05T12:00:01.863Z,38.47
2022-11-05T12:13:21.975Z,40.08
2022-11-05T12:16:03.981Z,40.66
2022-11-05T12:18:55.776Z,39.97
2022-11-05T12:21:51.312Z,39.71
2022-11-05T12:24:37.857Z,39.75
2022-11-05T12:27:39.134Z,39.81
2022-11-05T12:30:18.902Z,39.79
2022-11-05T12:33:04.904Z,38.80
2022-11-05T12:35:57.639Z,38.32
2022-11-05T12:38:55.897Z,37.79
2022-11-05T12:41:32.014Z,37.93
2022-11-05T12:44:23.454Z,37.66
2022-11-05T12:47:19.354Z,37.30
2022-11-05T12:50:04.943Z,35.84
2022-11-05T12:52:34.943Z,36.58
2022-11-05T12:55:24.294Z,36.04
2022-11-05T12:57:59.316Z,35.31
2022-11-05T13:00:29.538Z,34.61
2022-11-05T13:03:15.299Z,33.67
2022-11-05T13:05:49.239Z,33.72
2022-11-05T13:08:36.655Z,33.10
2022-11-05T13:11:20.454Z,33.63
2022-11-05T13:14:13.783Z,33.75
2022-11-05T13:16:46.774Z,33.17
2022-11-05T13:19:23.134Z,33.63
2022-11-05T13:21:57.014Z,34.40
2022-11-05T13:24:40.224Z,34.11
2022-11-05T13:27:52.225Z,34.71
2022-11-05T13:30:26.070Z,35.35
2022-11-05T13:33:09.016Z,35.17
2022-11-05T13:35:46.543Z,35.13
2022-11-05T13:38:43.621Z,37.58
2022-11-05T13:41:48.536Z,37.06
2022-11-05T13:44:36.897Z,38.82
2022-11-05T13:47:28.136Z,38.48
2022-11-05T13:50:16.736Z,38.28
2022-11-05T13:53:00.380Z,37.64
2022-11-05T13:55:54.573Z,37.13
2022-11-05T13:58:49.343Z,36.86
2022-11-05T14:01:30.676Z,37.41
2022-11-05T14:03:58.142Z,38.38
2022-11-05T14:06:36.098Z,37.35
2022-11-05T14:09:09.094Z,37.48
2022-11-05T14:11:40.936Z,37.85
2022-11-05T14:14:17.976Z,37.38
2022-11-05T14:17:14.814Z,37.16
2022-11-05T14:20:04.704Z,38.05
2022-11-05T14:22:31.871Z,38.98
2022-11-05T14:25:23.254Z,39.22
2022-11-05T14:27:53.055Z,39.16
2022-11-05T14:30:46.470Z,39.77
2022-11-05T14:33:32.373Z,38.80
2022-11-05T14:36:30.734Z,38.27
2022-11-05T14:39:25.026Z,38.64
2022-11-05T14:41:53.334Z,38.54
2022-11-05T14:44:20.585Z,38.80
2022-11-05T14:46:51.334Z,38.48
2022-11-05T14:49:26.378Z,39.07
2022-11-05T14:51:56.790Z,38.49
2022-11-05T14:54:44.061Z,38.11
2022-11-05T14:57:35.334Z,38.40
2022-11-05T15:00:02.976Z,39.28
2022-11-05T15:02:39.328Z,39.45
2022-11-05T15:05:31.259Z,39.46
2022-11-05T15:07:59.693Z,39.02
2022-11-05T15:10:35.094Z,39.10
2022-11-05T15:13:06.655Z,38.91
2022-11-05T15:15:43.973Z,38.85
2022-11-05T15:18:39.134Z,39.40
2022-11-05T15:21:10.934Z,39.49
2022-11-05T15:23:44.694Z,39.78
2022-11-05T15:26:38.536Z,39.56
2022-11-05T15:29:20.094Z,40.14
2022-11-05T15:31:47.614Z,40.23
2022-11-05T15:34:23.014Z,40.40
2022-11-05T15:36:56.823Z,40.50
2022-11-05T15:39:32.267Z,40.58
2022-11-05T15:42:04.973Z,40.40
2022-11-05T15:44:38.333Z,40.56
2022-11-05T15:47:14.654Z,40.88
2022-11-05T15:49:44.944Z,41.05
2022-11-05T15:52:14.417Z,41.07
2022-11-05T15:54:42.582Z,41.59
2022-11-05T15:57:19.624Z,41.68
2022-11-05T15:59:47.936Z,41.61
2022-11-05T16:02:32.169Z,41.95
2022-11-05T16:05:01.782Z,42.12
2022-11-05T16:07:29.375Z,42.34
2022-11-05T16:10:00.214Z,42.13
2022-11-05T16:12:34.313Z,42.34
2022-11-05T16:15:10.739Z,42.54
2022-11-05T16:17:57.902Z,42.71
2022-11-05T16:20:36.214Z,42.29
2022-11-05T16:23:07.420Z,42.28
2022-11-05T16:25:40.701Z,42.42
2022-11-05T16:28:20.424Z,42.42
2022-11-05T16:31:05.335Z,42.45
2022-11-05T16:33:46.493Z,42.32
2022-11-05T16:36:14.059Z,42.51
2022-11-05T16:38:41.296Z,42.18
2022-11-05T16:41:20.865Z,42.11
2022-11-05T16:43:54.014Z,42.44
2022-11-05T16:46:21.858Z,42.48
2022-11-05T16:48:49.136Z,42.72
2022-11-05T16:51:16.977Z,42.66
2022-11-05T16:53:44.457Z,42.74
2022-11-05T16:56:20.334Z,42.55
2022-11-05T16:58:49.135Z,42.89
2022-11-05T17:01:22.103Z,42.34
2022-11-05T17:03:51.255Z,42.69
2022-11-05T17:06:19.815Z,42.89
2022-11-05T17:08:48.334Z,42.74
2022-11-05T17:11:21.937Z,42.71
2022-11-05T17:13:49.656Z,42.31
2022-11-05T17:16:18.345Z,42.74
2022-11-05T17:18:45.661Z,43.01
2022-11-05T17:21:14.457Z,42.98
2022-11-05T17:23:41.781Z,43.36
2022-11-05T17:26:11.464Z,43.16
2022-11-05T17:28:40.786Z,43.26
2022-11-05T17:31:11.374Z,42.95
2022-11-05T17:33:38.777Z,43.88
2022-11-05T17:36:08.145Z,43.23
2022-11-05T17:38:35.743Z,43.41
2022-11-05T17:41:09.896Z,43.25
2022-11-05T17:43:37.136Z,43.37
2022-11-05T17:46:09.137Z,43.67
2022-11-05T17:48:37.627Z,44.17
2022-11-05T17:51:06.063Z,44.43
2022-11-05T17:53:33.662Z,44.50
2022-11-05T17:56:00.952Z,44.15
2022-11-05T17:58:29.270Z,44.44
2022-11-05T18:00:56.502Z,44.50
2022-11-05T18:03:23.816Z,43.87
2022-11-05T18:05:50.942Z,44.45
2022-11-05T18:08:18.136Z,44.60
2022-11-05T18:10:45.419Z,44.37
2022-11-05T18:13:13.559Z,44.73
2022-11-05T18:15:41.623Z,44.93
2022-11-05T18:18:09.658Z,44.95
2022-11-05T18:20:36.975Z,45.23
2022-11-05T18:23:04.176Z,45.24
2022-11-05T18:25:31.418Z,45.18
2022-11-05T18:27:58.698Z,45.08
2022-11-05T18:30:25.894Z,44.70
2022-11-05T18:32:53.257Z,44.95
2022-11-05T18:35:20.416Z,44.86
2022-11-05T18:37:47.657Z,45.27
2022-11-05T18:40:14.975Z,44.99
2022-11-05T18:42:42.336Z,44.93
2022-11-05T18:45:10.815Z,44.84
2022-11-05T18:47:38.542Z,45.01
2022-11-05T18:50:07.354Z,44.83
2022-11-05T18:52:34.694Z,45.16
2022-11-05T18:55:02.227Z,45.14
2022-11-05T18:57:29.534Z,45.22
2022-11-05T18:59:56.591Z,44.98
2022-11-05T19:02:23.906Z,45.49
2022-11-05T19:05:21.961Z,45.27
2022-11-05T19:07:39.154Z,45.98
2022-11-05T19:10:07.103Z,45.58
2022-11-05T19:12:34.256Z,46.83
2022-11-05T19:15:02.956Z,46.57
2022-11-05T19:17:32.934Z,46.60
2022-11-05T19:20:00.643Z,46.80
2022-11-05T19:22:28.335Z,46.57
2022-11-05T19:24:55.536Z,46.99
2022-11-05T19:27:23.575Z,47.09
2022-11-05T19:29:50.857Z,46.61
2022-11-05T19:32:18.468Z,47.32
2022-11-05T19:34:45.614Z,46.85
2022-11-05T19:37:13.096Z,47.07
2022-11-05T19:39:41.505Z,47.00
2022-11-05T19:42:10.064Z,47.49
2022-11-05T19:44:37.302Z,46.92
2022-11-05T19:47:04.574Z,47.07
2022-11-05T19:49:31.704Z,47.14
2022-11-05T19:51:59.136Z,47.04
2022-11-05T19:54:26.375Z,46.95
2022-11-05T19:56:53.658Z,46.57
2022-11-05T19:59:20.823Z,46.60
2022-11-05T20:01:48.217Z,47.08
2022-11-05T20:04:15.542Z,46.61
2022-11-05T20:06:42.895Z,46.63
2022-11-05T20:09:22.670Z,46.25
2022-11-05T20:11:52.754Z,46.48
2022-11-05T20:14:20.500Z,46.22
2022-11-05T20:16:47.825Z,46.60
2022-11-05T20:19:18.536Z,46.35
2022-11-05T20:21:45.816Z,46.44
2022-11-05T20:24:18.736Z,47.23
2022-11-05T20:26:49.232Z,47.49
2022-11-05T20:29:17.535Z,46.99
2022-11-05T20:31:45.458Z,46.74
2022-11-05T20:34:13.414Z,46.63
2022-11-05T20:36:41.657Z,46.26
2022-11-05T20:39:10.138Z,46.41
2022-11-05T20:41:37.466Z,46.37
2022-11-05T20:44:04.943Z,46.52
2022-11-05T20:46:33.313Z,47.03
2022-11-05T20:49:00.382Z,46.66
2022-11-05T20:51:27.707Z,46.63
2022-11-05T20:54:00.337Z,47.15
2022-11-05T20:56:30.984Z,46.71
2022-11-05T20:58:59.994Z,47.04
2022-11-05T21:01:30.693Z,47.76
2022-11-05T21:04:02.575Z,48.08
2022-11-05T21:06:30.748Z,48.13
2022-11-05T21:08:58.374Z,48.45
2022-11-05T21:11:25.575Z,48.54
2022-11-05T21:13:52.936Z,49.15
2022-11-05T21:16:20.820Z,48.90
2022-11-05T21:18:48.334Z,48.91
2022-11-05T21:21:20.709Z,49.29
2022-11-05T21:23:48.462Z,49.11
2022-11-05T21:26:18.068Z,49.03
2022-11-05T21:28:45.457Z,49.26
2022-11-05T21:31:12.668Z,49.47
2022-11-05T21:33:40.054Z,49.37
2022-11-05T21:36:12.595Z,49.37
2022-11-05T21:38:40.781Z,49.64
2022-11-05T21:41:08.687Z,49.42
2022-11-05T21:43:36.014Z,49.50
2022-11-05T21:46:04.656Z,49.34
2022-11-05T21:48:32.543Z,49.69
2022-11-05T21:51:18.747Z,49.36
2022-11-05T21:54:05.576Z,50.23
2022-11-05T21:56:52.700Z,50.31
2022-11-05T21:59:42.536Z,50.31
2022-11-05T22:02:12.700Z,50.30
2022-11-05T22:04:42.376Z,49.88
2022-11-05T22:07:12.178Z,50.24
2022-11-05T22:09:39.703Z,50.63
2022-11-05T22:12:07.785Z,50.67
2022-11-05T22:14:35.536Z,50.86
2022-11-05T22:17:02.657Z,50.65
2022-11-05T22:19:31.016Z,51.13
2022-11-05T22:21:57.933Z,50.97
2022-11-05T22:24:25.654Z,50.70
2022-11-05T22:26:52.774Z,50.48
2022-11-05T22:29:20.257Z,51.38
2022-11-05T22:31:47.577Z,52.05
2022-11-05T22:34:14.773Z,52.28
2022-11-05T22:36:42.099Z,51.55
2022-11-05T22:39:11.097Z,52.30
2022-11-05T22:41:38.611Z,53.34
2022-11-05T22:44:06.141Z,53.16
2022-11-05T22:46:34.020Z,53.07
2022-11-05T22:49:01.420Z,53.49
2022-11-05T22:51:31.440Z,53.92
2022-11-05T22:53:59.578Z,53.80
2022-11-05T22:56:29.934Z,54.33
2022-11-05T22:58:57.779Z,54.23
2022-11-05T23:01:25.962Z,54.42
2022-11-05T23:03:55.337Z,54.20
2022-11-05T23:06:42.382Z,54.15
2022-11-05T23:09:40.335Z,54.19
2022-11-05T23:12:18.983Z,53.60
2022-11-05T23:14:46.335Z,54.42
2022-11-05T23:17:32.175Z,55.72
2022-11-05T23:20:17.654Z,54.46
2022-11-05T23:23:03.382Z,54.85
2022-11-05T23:25:30.856Z,54.76
2022-11-05T23:27:58.138Z,56.00
2022-11-05T23:30:27.594Z,55.64
2022-11-05T23:32:56.256Z,55.29
2022-11-05T23:35:43.837Z,55.13
2022-11-05T23:38:43.415Z,54.71
2022-11-05T23:41:29.095Z,54.58
2022-11-05T23:44:14.538Z,54.34
2022-11-05T23:47:00.336Z,54.24
2022-11-05T23:49:27.616Z,53.97
2022-11-05T23:51:54.779Z,54.20
2022-11-05T23:54:22.783Z,54.18
2022-11-05T23:56:49.900Z,54.19
2022-11-05T23:59:17.136Z,53.82
